sensor_id;sensor_type;location;lat;lon;timestamp;pressure;altitude;pressure_sealevel;temperature
18219;BMP180;9234;49.344;11.120;2023-03-14T01:02:36;95865.00;;;10.30
18219;BMP180;9234;49.344;11.120;2023-03-14T01:05:05;95864.00;;;10.30
18219;BMP180;9234;49.344;11.120;2023-03-14T01:07:34;95851.00;;;10.30
18219;BMP180;9234;49.344;11.120;2023-03-14T01:10:07;95836.00;;;10.30
18219;BMP180;9234;49.344;11.120;2023-03-14T01:12:36;95822.00;;;10.30
18219;BMP180;9234;49.344;11.120;2023-03-14T01:15:06;95807.00;;;10.30
18219;BMP180;9234;49.344;11.120;2023-03-14T01:17:36;95797.00;;;10.40
18219;BMP180;9234;49.344;11.120;2023-03-14T01:20:10;95759.00;;;10.40
18219;BMP180;9234;49.344;11.120;2023-03-14T01:22:39;95732.00;;;10.40
18219;BMP180;9234;49.344;11.120;2023-03-14T01:25:11;95751.00;;;10.40
18219;BMP180;9234;49.344;11.120;2023-03-14T01:27:39;95750.00;;;10.40
18219;BMP180;9234;49.344;11.120;2023-03-14T01:30:10;95745.00;;;10.40
18219;BMP180;9234;49.344;11.120;2023-03-14T01:32:40;95727.00;;;10.40
18219;BMP180;9234;49.344;11.120;2023-03-14T01:35:08;95722.00;;;10.40
18219;BMP180;9234;49.344;11.120;2023-03-14T01:37:37;95707.00;;;10.40
18219;BMP180;9234;49.344;11.120;2023-03-14T01:40:12;95714.00;;;10.40
18219;BMP180;9234;49.344;11.120;2023-03-14T01:42:54;95722.00;;;10.40
18219;BMP180;9234;49.344;11.120;2023-03-14T01:46:19;95732.00;;;10.40
18219;BMP180;9234;49.344;11.120;2023-03-14T01:48:58;95753.00;;;10.40
18219;BMP180;9234;49.344;11.120;2023-03-14T01:51:36;95775.00;;;10.40
18219;BMP180;9234;49.344;11.120;2023-03-14T01:54:14;95793.00;;;10.40
18219;BMP180;9234;49.344;11.120;2023-03-14T01:56:47;95802.00;;;10.30
18219;BMP180;9234;49.344;11.120;2023-03-14T01:59:16;95809.00;;;10.30
18219;BMP180;9234;49.344;11.120;2023-03-14T02:01:47;95811.00;;;10.40
18219;BMP180;9234;49.344;11.120;2023-03-14T02:04:20;95792.00;;;10.40
18219;BMP180;9234;49.344;11.120;2023-03-14T02:06:56;95801.00;;;10.40
18219;BMP180;9234;49.344;11.120;2023-03-14T02:09:31;95783.00;;;10.40
18219;BMP180;9234;49.344;11.120;2023-03-14T02:12:00;95777.00;;;10.40
18219;BMP180;9234;49.344;11.120;2023-03-14T02:14:44;95786.00;;;10.40
18219;BMP180;9234;49.344;11.120;2023-03-14T02:17:25;95782.00;;;10.40
18219;BMP180;9234;49.344;11.120;2023-03-14T02:20:36;95775.00;;;10.40
18219;BMP180;9234;49.344;11.120;2023-03-14T02:23:06;95762.00;;;10.40
18219;BMP180;9234;49.344;11.120;2023-03-14T02:25:42;95765.00;;;10.50
18219;BMP180;9234;49.344;11.120;2023-03-14T02:28:14;95753.00;;;10.40
18219;BMP180;9234;49.344;11.120;2023-03-14T02:30:43;95750.00;;;10.50
18219;BMP180;9234;49.344;11.120;2023-03-14T02:33:15;95758.00;;;10.40
18219;BMP180;9234;49.344;11.120;2023-03-14T02:35:50;95766.00;;;10.40
18219;BMP180;9234;49.344;11.120;2023-03-14T02:38:27;95762.00;;;10.50
18219;BMP180;9234;49.344;11.120;2023-03-14T02:40:59;95740.00;;;10.40
18219;BMP180;9234;49.344;11.120;2023-03-14T02:43:32;95736.00;;;10.40
18219;BMP180;9234;49.344;11.120;2023-03-14T02:46:05;95744.00;;;10.40
18219;BMP180;9234;49.344;11.120;2023-03-14T02:48:39;95748.00;;;10.40
18219;BMP180;9234;49.344;11.120;2023-03-14T02:51:11;95753.00;;;10.40
18219;BMP180;9234;49.344;11.120;2023-03-14T02:53:40;95742.00;;;10.40
18219;BMP180;9234;49.344;11.120;2023-03-14T02:56:12;95733.00;;;10.40
18219;BMP180;9234;49.344;11.120;2023-03-14T02:58:41;95731.00;;;10.40
18219;BMP180;9234;49.344;11.120;2023-03-14T03:01:24;95736.00;;;10.40
18219;BMP180;9234;49.344;11.120;2023-03-14T03:03:53;95732.00;;;10.40
18219;BMP180;9234;49.344;11.120;2023-03-14T03:06:21;95729.00;;;10.30
18219;BMP180;9234;49.344;11.120;2023-03-14T03:08:49;95717.00;;;10.30
18219;BMP180;9234;49.344;11.120;2023-03-14T03:11:17;95734.00;;;10.30
18219;BMP180;9234;49.344;11.120;2023-03-14T03:13:47;95750.00;;;10.20
18219;BMP180;9234;49.344;11.120;2023-03-14T03:16:15;95736.00;;;10.20
18219;BMP180;9234;49.344;11.120;2023-03-14T03:18:43;95734.00;;;10.20
18219;BMP180;9234;49.344;11.120;2023-03-14T03:21:11;95715.00;;;10.10
18219;BMP180;9234;49.344;11.120;2023-03-14T03:23:42;95716.00;;;10.10
18219;BMP180;9234;49.344;11.120;2023-03-14T03:26:11;95719.00;;;10.10
18219;BMP180;9234;49.344;11.120;2023-03-14T03:28:39;95700.00;;;10.10
18219;BMP180;9234;49.344;11.120;2023-03-14T03:31:11;95701.00;;;10.10
18219;BMP180;9234;49.344;11.120;2023-03-14T03:33:39;95687.00;;;10.10
18219;BMP180;9234;49.344;11.120;2023-03-14T03:36:09;95697.00;;;10.10
18219;BMP180;9234;49.344;11.120;2023-03-14T03:38:39;95701.00;;;10.00
18219;BMP180;9234;49.344;11.120;2023-03-14T03:41:08;95711.00;;;10.00
18219;BMP180;9234;49.344;11.120;2023-03-14T03:43:37;95719.00;;;10.00
18219;BMP180;9234;49.344;11.120;2023-03-14T03:46:09;95725.00;;;10.00
18219;BMP180;9234;49.344;11.120;2023-03-14T03:48:37;95693.00;;;10.00
18219;BMP180;9234;49.344;11.120;2023-03-14T03:51:06;95701.00;;;9.90
18219;BMP180;9234;49.344;11.120;2023-03-14T03:53:35;95707.00;;;9.90
18219;BMP180;9234;49.344;11.120;2023-03-14T03:56:09;95697.00;;;9.90
18219;BMP180;9234;49.344;11.120;2023-03-14T03:58:38;95688.00;;;9.90
18219;BMP180;9234;49.344;11.120;2023-03-14T04:01:09;95673.00;;;9.90
18219;BMP180;9234;49.344;11.120;2023-03-14T04:03:38;95690.00;;;9.80
18219;BMP180;9234;49.344;11.120;2023-03-14T04:06:10;95666.00;;;9.80
18219;BMP180;9234;49.344;11.120;2023-03-14T04:08:40;95676.00;;;9.80
18219;BMP180;9234;49.344;11.120;2023-03-14T04:11:12;95668.00;;;9.80
18219;BMP180;9234;49.344;11.120;2023-03-14T04:13:57;95658.00;;;9.70
18219;BMP180;9234;49.344;11.120;2023-03-14T04:16:28;95641.00;;;9.70
18219;BMP180;9234;49.344;11.120;2023-03-14T04:19:04;95646.00;;;9.70
18219;BMP180;9234;49.344;11.120;2023-03-14T04:21:32;95657.00;;;9.70
18219;BMP180;9234;49.344;11.120;2023-03-14T04:24:01;95645.00;;;9.70
18219;BMP180;9234;49.344;11.120;2023-03-14T04:26:32;95645.00;;;9.60
18219;BMP180;9234;49.344;11.120;2023-03-14T04:29:01;95644.00;;;9.60
18219;BMP180;9234;49.344;11.120;2023-03-14T04:31:30;95639.00;;;9.60
18219;BMP180;9234;49.344;11.120;2023-03-14T04:33:59;95632.00;;;9.60
18219;BMP180;9234;49.344;11.120;2023-03-14T04:36:34;95639.00;;;9.60
18219;BMP180;9234;49.344;11.120;2023-03-14T04:39:08;95647.00;;;9.50
18219;BMP180;9234;49.344;11.120;2023-03-14T04:41:40;95657.00;;;9.50
18219;BMP180;9234;49.344;11.120;2023-03-14T04:44:10;95647.00;;;9.50
18219;BMP180;9234;49.344;11.120;2023-03-14T04:46:39;95650.00;;;9.50
18219;BMP180;9234;49.344;11.120;2023-03-14T04:49:08;95656.00;;;9.50
18219;BMP180;9234;49.344;11.120;2023-03-14T04:51:37;95651.00;;;9.50
18219;BMP180;9234;49.344;11.120;2023-03-14T04:54:06;95662.00;;;9.50
18219;BMP180;9234;49.344;11.120;2023-03-14T04:56:34;95651.00;;;9.50
18219;BMP180;9234;49.344;11.120;2023-03-14T04:59:03;95658.00;;;9.50
18219;BMP180;9234;49.344;11.120;2023-03-14T05:01:34;95657.00;;;9.50
18219;BMP180;9234;49.344;11.120;2023-03-14T05:04:23;95670.00;;;9.40
18219;BMP180;9234;49.344;11.120;2023-03-14T05:07:02;95668.00;;;9.40
18219;BMP180;9234;49.344;11.120;2023-03-14T05:09:44;95659.00;;;9.40
18219;BMP180;9234;49.344;11.120;2023-03-14T05:12:39;95649.00;;;9.40
18219;BMP180;9234;49.344;11.120;2023-03-14T05:15:26;95637.00;;;9.30
18219;BMP180;9234;49.344;11.120;2023-03-14T05:18:18;95635.00;;;9.30
18219;BMP180;9234;49.344;11.120;2023-03-14T05:21:10;95638.00;;;9.30
18219;BMP180;9234;49.344;11.120;2023-03-14T05:23:38;95635.00;;;9.30
18219;BMP180;9234;49.344;11.120;2023-03-14T05:26:25;95631.00;;;9.30
18219;BMP180;9234;49.344;11.120;2023-03-14T05:29:14;95631.00;;;9.30
18219;BMP180;9234;49.344;11.120;2023-03-14T05:32:03;95627.00;;;9.30
18219;BMP180;9234;49.344;11.120;2023-03-14T05:34:51;95630.00;;;9.20
18219;BMP180;9234;49.344;11.120;2023-03-14T05:37:31;95621.00;;;9.20
18219;BMP180;9234;49.344;11.120;2023-03-14T05:40:29;95613.00;;;9.20
18219;BMP180;9234;49.344;11.120;2023-03-14T05:43:12;95609.00;;;9.20
18219;BMP180;9234;49.344;11.120;2023-03-14T05:45:58;95616.00;;;9.20
18219;BMP180;9234;49.344;11.120;2023-03-14T05:48:44;95610.00;;;9.20
18219;BMP180;9234;49.344;11.120;2023-03-14T05:51:22;95599.00;;;9.20
18219;BMP180;9234;49.344;11.120;2023-03-14T05:54:18;95598.00;;;9.20
18219;BMP180;9234;49.344;11.120;2023-03-14T05:57:10;95600.00;;;9.20
18219;BMP180;9234;49.344;11.120;2023-03-14T06:00:09;95606.00;;;9.20
18219;BMP180;9234;49.344;11.120;2023-03-14T06:02:50;95592.00;;;9.20
18219;BMP180;9234;49.344;11.120;2023-03-14T06:05:23;95596.00;;;9.20
18219;BMP180;9234;49.344;11.120;2023-03-14T06:07:57;95605.00;;;9.20
18219;BMP180;9234;49.344;11.120;2023-03-14T06:10:30;95605.00;;;9.20
18219;BMP180;9234;49.344;11.120;2023-03-14T06:12:58;95590.00;;;9.20
18219;BMP180;9234;49.344;11.120;2023-03-14T06:15:26;95605.00;;;9.30
18219;BMP180;9234;49.344;11.120;2023-03-14T06:17:57;95586.00;;;9.30
18219;BMP180;9234;49.344;11.120;2023-03-14T06:20:26;95600.00;;;9.30
18219;BMP180;9234;49.344;11.120;2023-03-14T06:22:54;95605.00;;;9.40
18219;BMP180;9234;49.344;11.120;2023-03-14T06:25:23;95600.00;;;9.40
18219;BMP180;9234;49.344;11.120;2023-03-14T06:27:52;95591.00;;;9.50
18219;BMP180;9234;49.344;11.120;2023-03-14T06:30:21;95593.00;;;9.50
18219;BMP180;9234;49.344;11.120;2023-03-14T06:32:49;95596.00;;;9.50
18219;BMP180;9234;49.344;11.120;2023-03-14T06:35:20;95599.00;;;9.60
18219;BMP180;9234;49.344;11.120;2023-03-14T06:37:48;95598.00;;;9.60
18219;BMP180;9234;49.344;11.120;2023-03-14T06:40:17;95605.00;;;9.70
18219;BMP180;9234;49.344;11.120;2023-03-14T06:42:54;95602.00;;;9.70
18219;BMP180;9234;49.344;11.120;2023-03-14T06:45:25;95587.00;;;9.70
18219;BMP180;9234;49.344;11.120;2023-03-14T06:47:54;95605.00;;;9.80
18219;BMP180;9234;49.344;11.120;2023-03-14T06:50:28;95602.00;;;9.80
18219;BMP180;9234;49.344;11.120;2023-03-14T06:52:58;95617.00;;;9.80
18219;BMP180;9234;49.344;11.120;2023-03-14T06:55:27;95611.00;;;9.90
18219;BMP180;9234;49.344;11.120;2023-03-14T06:57:56;95606.00;;;9.90
18219;BMP180;9234;49.344;11.120;2023-03-14T07:00:25;95609.00;;;10.00
18219;BMP180;9234;49.344;11.120;2023-03-14T07:02:55;95602.00;;;10.00
18219;BMP180;9234;49.344;11.120;2023-03-14T07:05:33;95593.00;;;10.10
18219;BMP180;9234;49.344;11.120;2023-03-14T07:08:01;95620.00;;;10.10
18219;BMP180;9234;49.344;11.120;2023-03-14T07:10:29;95619.00;;;10.20
18219;BMP180;9234;49.344;11.120;2023-03-14T07:13:00;95610.00;;;10.30
18219;BMP180;9234;49.344;11.120;2023-03-14T07:15:33;95613.00;;;10.40
18219;BMP180;9234;49.344;11.120;2023-03-14T07:18:06;95620.00;;;10.40
18219;BMP180;9234;49.344;11.120;2023-03-14T07:20:34;95629.00;;;10.50
18219;BMP180;9234;49.344;11.120;2023-03-14T07:23:03;95623.00;;;10.60
18219;BMP180;9234;49.344;11.120;2023-03-14T07:25:46;95631.00;;;10.70
18219;BMP180;9234;49.344;11.120;2023-03-14T07:28:18;95623.00;;;10.70
18219;BMP180;9234;49.344;11.120;2023-03-14T07:30:50;95636.00;;;10.80
18219;BMP180;9234;49.344;11.120;2023-03-14T07:33:26;95632.00;;;10.80
18219;BMP180;9234;49.344;11.120;2023-03-14T07:35:55;95633.00;;;10.90
18219;BMP180;9234;49.344;11.120;2023-03-14T07:38:23;95624.00;;;10.90
18219;BMP180;9234;49.344;11.120;2023-03-14T07:41:11;95620.00;;;10.90
18219;BMP180;9234;49.344;11.120;2023-03-14T07:43:59;95630.00;;;10.90
18219;BMP180;9234;49.344;11.120;2023-03-14T07:46:27;95647.00;;;10.90
18219;BMP180;9234;49.344;11.120;2023-03-14T07:48:55;95624.00;;;10.90
18219;BMP180;9234;49.344;11.120;2023-03-14T07:51:24;95634.00;;;10.90
18219;BMP180;9234;49.344;11.120;2023-03-14T07:53:52;95645.00;;;10.90
18219;BMP180;9234;49.344;11.120;2023-03-14T07:56:20;95638.00;;;10.90
18219;BMP180;9234;49.344;11.120;2023-03-14T07:58:48;95641.00;;;10.90
18219;BMP180;9234;49.344;11.120;2023-03-14T08:01:17;95645.00;;;11.00
18219;BMP180;9234;49.344;11.120;2023-03-14T08:03:46;95640.00;;;11.00
18219;BMP180;9234;49.344;11.120;2023-03-14T08:06:14;95633.00;;;11.10
18219;BMP180;9234;49.344;11.120;2023-03-14T08:08:42;95636.00;;;11.20
18219;BMP180;9234;49.344;11.120;2023-03-14T08:11:10;95624.00;;;11.20
18219;BMP180;9234;49.344;11.120;2023-03-14T08:13:38;95629.00;;;11.30
18219;BMP180;9234;49.344;11.120;2023-03-14T08:16:08;95622.00;;;11.30
18219;BMP180;9234;49.344;11.120;2023-03-14T08:18:38;95618.00;;;11.30
18219;BMP180;9234;49.344;11.120;2023-03-14T08:21:06;95622.00;;;11.40
18219;BMP180;9234;49.344;11.120;2023-03-14T08:23:34;95605.00;;;11.40
18219;BMP180;9234;49.344;11.120;2023-03-14T08:26:02;95603.00;;;11.40
18219;BMP180;9234;49.344;11.120;2023-03-14T08:28:31;95597.00;;;11.50
18219;BMP180;9234;49.344;11.120;2023-03-14T08:31:02;95606.00;;;11.50
18219;BMP180;9234;49.344;11.120;2023-03-14T08:33:30;95603.00;;;11.70
18219;BMP180;9234;49.344;11.120;2023-03-14T08:36:01;95588.00;;;11.70
18219;BMP180;9234;49.344;11.120;2023-03-14T08:38:30;95599.00;;;11.80
18219;BMP180;9234;49.344;11.120;2023-03-14T08:41:00;95583.00;;;12.00
18219;BMP180;9234;49.344;11.120;2023-03-14T08:43:29;95594.00;;;12.10
18219;BMP180;9234;49.344;11.120;2023-03-14T08:45:58;95597.00;;;12.20
18219;BMP180;9234;49.344;11.120;2023-03-14T08:48:27;95587.00;;;12.40
18219;BMP180;9234;49.344;11.120;2023-03-14T08:51:05;95591.00;;;12.50
18219;BMP180;9234;49.344;11.120;2023-03-14T08:53:34;95587.00;;;12.60
18219;BMP180;9234;49.344;11.120;2023-03-14T08:56:02;95589.00;;;12.80
18219;BMP180;9234;49.344;11.120;2023-03-14T08:58:33;95595.00;;;13.00
18219;BMP180;9234;49.344;11.120;2023-03-14T09:01:01;95591.00;;;13.10
18219;BMP180;9234;49.344;11.120;2023-03-14T09:03:29;95593.00;;;13.20
18219;BMP180;9234;49.344;11.120;2023-03-14T09:06:02;95590.00;;;13.30
18219;BMP180;9234;49.344;11.120;2023-03-14T09:08:33;95603.00;;;13.30
18219;BMP180;9234;49.344;11.120;2023-03-14T09:11:07;95596.00;;;13.30
18219;BMP180;9234;49.344;11.120;2023-03-14T09:13:37;95604.00;;;13.30
18219;BMP180;9234;49.344;11.120;2023-03-14T09:16:07;95598.00;;;13.30
18219;BMP180;9234;49.344;11.120;2023-03-14T09:18:36;95587.00;;;13.30
18219;BMP180;9234;49.344;11.120;2023-03-14T09:21:04;95588.00;;;13.40
18219;BMP180;9234;49.344;11.120;2023-03-14T09:23:34;95587.00;;;13.50
18219;BMP180;9234;49.344;11.120;2023-03-14T09:26:02;95598.00;;;13.60
18219;BMP180;9234;49.344;11.120;2023-03-14T09:28:31;95583.00;;;13.70
18219;BMP180;9234;49.344;11.120;2023-03-14T09:31:06;95593.00;;;13.80
18219;BMP180;9234;49.344;11.120;2023-03-14T09:33:35;95585.00;;;13.90
18219;BMP180;9234;49.344;11.120;2023-03-14T09:36:04;95585.00;;;14.00
18219;BMP180;9234;49.344;11.120;2023-03-14T09:38:35;95572.00;;;14.10
18219;BMP180;9234;49.344;11.120;2023-03-14T09:41:15;95573.00;;;14.30
18219;BMP180;9234;49.344;11.120;2023-03-14T09:43:46;95574.00;;;14.50
18219;BMP180;9234;49.344;11.120;2023-03-14T09:46:18;95577.00;;;14.70
18219;BMP180;9234;49.344;11.120;2023-03-14T09:48:47;95590.00;;;14.90
18219;BMP180;9234;49.344;11.120;2023-03-14T09:51:19;95594.00;;;15.00
18219;BMP180;9234;49.344;11.120;2023-03-14T09:53:50;95590.00;;;15.10
18219;BMP180;9234;49.344;11.120;2023-03-14T09:56:23;95587.00;;;15.20
18219;BMP180;9234;49.344;11.120;2023-03-14T09:58:56;95582.00;;;15.20
18219;BMP180;9234;49.344;11.120;2023-03-14T10:01:28;95583.00;;;15.10
18219;BMP180;9234;49.344;11.120;2023-03-14T10:04:05;95577.00;;;14.90
18219;BMP180;9234;49.344;11.120;2023-03-14T10:06:34;95582.00;;;14.70
18219;BMP180;9234;49.344;11.120;2023-03-14T10:09:04;95580.00;;;14.60
18219;BMP180;9234;49.344;11.120;2023-03-14T10:11:33;95585.00;;;14.50
18219;BMP180;9234;49.344;11.120;2023-03-14T10:14:07;95565.00;;;14.40
18219;BMP180;9234;49.344;11.120;2023-03-14T10:16:41;95580.00;;;14.30
18219;BMP180;9234;49.344;11.120;2023-03-14T10:19:13;95575.00;;;14.30
18219;BMP180;9234;49.344;11.120;2023-03-14T10:21:43;95571.00;;;14.30
18219;BMP180;9234;49.344;11.120;2023-03-14T10:24:22;95568.00;;;14.20
18219;BMP180;9234;49.344;11.120;2023-03-14T10:26:53;95570.00;;;14.30
18219;BMP180;9234;49.344;11.120;2023-03-14T10:29:22;95564.00;;;14.40
18219;BMP180;9234;49.344;11.120;2023-03-14T10:31:53;95556.00;;;14.40
18219;BMP180;9234;49.344;11.120;2023-03-14T10:34:25;95547.00;;;14.50
18219;BMP180;9234;49.344;11.120;2023-03-14T10:36:57;95555.00;;;14.50
18219;BMP180;9234;49.344;11.120;2023-03-14T10:39:47;95552.00;;;14.50
18219;BMP180;9234;49.344;11.120;2023-03-14T10:42:21;95556.00;;;14.50
18219;BMP180;9234;49.344;11.120;2023-03-14T10:44:55;95561.00;;;14.60
18219;BMP180;9234;49.344;11.120;2023-03-14T10:47:26;95553.00;;;14.60
18219;BMP180;9234;49.344;11.120;2023-03-14T10:49:57;95560.00;;;14.70
18219;BMP180;9234;49.344;11.120;2023-03-14T10:52:48;95573.00;;;14.80
18219;BMP180;9234;49.344;11.120;2023-03-14T10:55:40;95546.00;;;14.90
18219;BMP180;9234;49.344;11.120;2023-03-14T10:58:24;95560.00;;;15.10
18219;BMP180;9234;49.344;11.120;2023-03-14T11:01:15;95561.00;;;15.20
18219;BMP180;9234;49.344;11.120;2023-03-14T11:03:54;95548.00;;;15.20
18219;BMP180;9234;49.344;11.120;2023-03-14T11:06:36;95562.00;;;15.10
18219;BMP180;9234;49.344;11.120;2023-03-14T11:09:18;95565.00;;;15.00
18219;BMP180;9234;49.344;11.120;2023-03-14T11:11:51;95563.00;;;14.80
18219;BMP180;9234;49.344;11.120;2023-03-14T11:14:28;95553.00;;;14.50
18219;BMP180;9234;49.344;11.120;2023-03-14T11:17:04;95553.00;;;14.40
18219;BMP180;9234;49.344;11.120;2023-03-14T11:20:09;95564.00;;;14.30
18219;BMP180;9234;49.344;11.120;2023-03-14T11:22:46;95570.00;;;14.20
18219;BMP180;9234;49.344;11.120;2023-03-14T11:25:25;95564.00;;;14.20
18219;BMP180;9234;49.344;11.120;2023-03-14T11:28:09;95558.00;;;14.00
18219;BMP180;9234;49.344;11.120;2023-03-14T11:30:46;95590.00;;;13.90
18219;BMP180;9234;49.344;11.120;2023-03-14T11:33:19;95581.00;;;13.80
18219;BMP180;9234;49.344;11.120;2023-03-14T11:35:58;95583.00;;;13.60
18219;BMP180;9234;49.344;11.120;2023-03-14T11:38:33;95587.00;;;13.60
18219;BMP180;9234;49.344;11.120;2023-03-14T11:41:04;95570.00;;;13.50
18219;BMP180;9234;49.344;11.120;2023-03-14T11:43:39;95582.00;;;13.50
18219;BMP180;9234;49.344;11.120;2023-03-14T11:46:17;95577.00;;;13.50
18219;BMP180;9234;49.344;11.120;2023-03-14T11:49:00;95562.00;;;13.50
18219;BMP180;9234;49.344;11.120;2023-03-14T11:51:33;95551.00;;;13.60
18219;BMP180;9234;49.344;11.120;2023-03-14T11:54:13;95543.00;;;13.80
18219;BMP180;9234;49.344;11.120;2023-03-14T11:56:50;95543.00;;;13.90
18219;BMP180;9234;49.344;11.120;2023-03-14T11:59:27;95544.00;;;14.10
18219;BMP180;9234;49.344;11.120;2023-03-14T12:02:03;95530.00;;;14.20
18219;BMP180;9234;49.344;11.120;2023-03-14T12:04:51;95533.00;;;14.40
18219;BMP180;9234;49.344;11.120;2023-03-14T12:07:34;95539.00;;;14.80
18219;BMP180;9234;49.344;11.120;2023-03-14T12:10:05;95528.00;;;15.20
18219;BMP180;9234;49.344;11.120;2023-03-14T12:12:34;95528.00;;;15.50
18219;BMP180;9234;49.344;11.120;2023-03-14T12:15:17;95520.00;;;15.60
18219;BMP180;9234;49.344;11.120;2023-03-14T12:17:46;95510.00;;;15.50
18219;BMP180;9234;49.344;11.120;2023-03-14T12:20:22;95502.00;;;15.30
18219;BMP180;9234;49.344;11.120;2023-03-14T12:22:54;95510.00;;;15.10
18219;BMP180;9234;49.344;11.120;2023-03-14T12:25:26;95513.00;;;14.90
18219;BMP180;9234;49.344;11.120;2023-03-14T12:28:20;95518.00;;;14.80
18219;BMP180;9234;49.344;11.120;2023-03-14T12:30:49;95519.00;;;14.90
18219;BMP180;9234;49.344;11.120;2023-03-14T12:33:33;95520.00;;;14.90
18219;BMP180;9234;49.344;11.120;2023-03-14T12:36:54;95519.00;;;15.00
18219;BMP180;9234;49.344;11.120;2023-03-14T12:39:39;95497.00;;;14.90
18219;BMP180;9234;49.344;11.120;2023-03-14T12:42:14;95516.00;;;14.90
18219;BMP180;9234;49.344;11.120;2023-03-14T12:44:48;95521.00;;;14.90
18219;BMP180;9234;49.344;11.120;2023-03-14T12:48:00;95511.00;;;14.90
18219;BMP180;9234;49.344;11.120;2023-03-14T12:50:40;95500.00;;;15.00
18219;BMP180;9234;49.344;11.120;2023-03-14T12:56:57;95507.00;;;14.90
18219;BMP180;9234;49.344;11.120;2023-03-14T12:59:34;95503.00;;;14.80
18219;BMP180;9234;49.344;11.120;2023-03-14T13:02:24;95508.00;;;14.70
18219;BMP180;9234;49.344;11.120;2023-03-14T13:05:05;95516.00;;;14.50
18219;BMP180;9234;49.344;11.120;2023-03-14T13:08:05;95523.00;;;14.50
18219;BMP180;9234;49.344;11.120;2023-03-14T13:10:47;95533.00;;;14.30
18219;BMP180;9234;49.344;11.120;2023-03-14T13:13:21;95556.00;;;14.10
18219;BMP180;9234;49.344;11.120;2023-03-14T13:15:55;95556.00;;;14.00
18219;BMP180;9234;49.344;11.120;2023-03-14T13:18:32;95578.00;;;13.80
18219;BMP180;9234;49.344;11.120;2023-03-14T13:21:07;95571.00;;;13.60
18219;BMP180;9234;49.344;11.120;2023-03-14T13:23:38;95567.00;;;13.40
18219;BMP180;9234;49.344;11.120;2023-03-14T13:26:13;95576.00;;;13.30
18219;BMP180;9234;49.344;11.120;2023-03-14T13:28:42;95589.00;;;13.10
18219;BMP180;9234;49.344;11.120;2023-03-14T13:31:22;95586.00;;;13.00
18219;BMP180;9234;49.344;11.120;2023-03-14T13:33:58;95595.00;;;12.90
18219;BMP180;9234;49.344;11.120;2023-03-14T13:36:28;95593.00;;;12.70
18219;BMP180;9234;49.344;11.120;2023-03-14T13:38:58;95605.00;;;12.50
18219;BMP180;9234;49.344;11.120;2023-03-14T13:41:27;95596.00;;;12.40
18219;BMP180;9234;49.344;11.120;2023-03-14T13:44:05;95619.00;;;12.20
18219;BMP180;9234;49.344;11.120;2023-03-14T13:46:35;95618.00;;;12.20
18219;BMP180;9234;49.344;11.120;2023-03-14T13:49:06;95624.00;;;12.10
18219;BMP180;9234;49.344;11.120;2023-03-14T13:51:39;95610.00;;;12.10
18219;BMP180;9234;49.344;11.120;2023-03-14T13:54:15;95615.00;;;11.90
18219;BMP180;9234;49.344;11.120;2023-03-14T13:56:44;95615.00;;;11.90
18219;BMP180;9234;49.344;11.120;2023-03-14T13:59:23;95608.00;;;11.70
18219;BMP180;9234;49.344;11.120;2023-03-14T14:01:53;95615.00;;;11.70
18219;BMP180;9234;49.344;11.120;2023-03-14T14:04:24;95623.00;;;11.70
18219;BMP180;9234;49.344;11.120;2023-03-14T14:06:57;95629.00;;;11.70
18219;BMP180;9234;49.344;11.120;2023-03-14T14:09:29;95634.00;;;11.70
18219;BMP180;9234;49.344;11.120;2023-03-14T14:12:03;95639.00;;;11.60
18219;BMP180;9234;49.344;11.120;2023-03-14T14:14:52;95640.00;;;11.60
18219;BMP180;9234;49.344;11.120;2023-03-14T14:17:28;95651.00;;;11.50
18219;BMP180;9234;49.344;11.120;2023-03-14T14:19:58;95661.00;;;11.50
18219;BMP180;9234;49.344;11.120;2023-03-14T14:22:30;95671.00;;;11.50
18219;BMP180;9234;49.344;11.120;2023-03-14T14:24:59;95686.00;;;11.40
18219;BMP180;9234;49.344;11.120;2023-03-14T14:27:35;95724.00;;;11.30
18219;BMP180;9234;49.344;11.120;2023-03-14T14:30:30;95740.00;;;11.20
18219;BMP180;9234;49.344;11.120;2023-03-14T14:33:20;95743.00;;;11.20
18219;BMP180;9234;49.344;11.120;2023-03-14T14:35:55;95751.00;;;11.20
18219;BMP180;9234;49.344;11.120;2023-03-14T14:38:26;95770.00;;;11.20
18219;BMP180;9234;49.344;11.120;2023-03-14T14:41:01;95766.00;;;11.20
18219;BMP180;9234;49.344;11.120;2023-03-14T14:43:36;95780.00;;;11.10
18219;BMP180;9234;49.344;11.120;2023-03-14T14:46:08;95804.00;;;10.90
18219;BMP180;9234;49.344;11.120;2023-03-14T14:48:38;95835.00;;;10.80
18219;BMP180;9234;49.344;11.120;2023-03-14T14:51:07;95827.00;;;10.70
18219;BMP180;9234;49.344;11.120;2023-03-14T14:53:40;95832.00;;;10.60
18219;BMP180;9234;49.344;11.120;2023-03-14T14:56:18;95855.00;;;10.60
18219;BMP180;9234;49.344;11.120;2023-03-14T14:58:49;95884.00;;;10.50
18219;BMP180;9234;49.344;11.120;2023-03-14T15:01:20;95888.00;;;10.40
18219;BMP180;9234;49.344;11.120;2023-03-14T15:03:52;95914.00;;;10.20
18219;BMP180;9234;49.344;11.120;2023-03-14T15:06:22;95906.00;;;10.00
18219;BMP180;9234;49.344;11.120;2023-03-14T15:08:55;95916.00;;;9.90
18219;BMP180;9234;49.344;11.120;2023-03-14T15:11:25;95926.00;;;9.80
18219;BMP180;9234;49.344;11.120;2023-03-14T15:13:54;95924.00;;;9.70
18219;BMP180;9234;49.344;11.120;2023-03-14T15:16:28;95944.00;;;9.70
18219;BMP180;9234;49.344;11.120;2023-03-14T15:18:59;95960.00;;;9.60
18219;BMP180;9234;49.344;11.120;2023-03-14T15:21:32;95941.00;;;9.50
18219;BMP180;9234;49.344;11.120;2023-03-14T15:24:04;95972.00;;;9.40
18219;BMP180;9234;49.344;11.120;2023-03-14T15:26:32;95971.00;;;9.40
18219;BMP180;9234;49.344;11.120;2023-03-14T15:29:00;95994.00;;;9.40
18219;BMP180;9234;49.344;11.120;2023-03-14T15:31:29;95983.00;;;9.30
18219;BMP180;9234;49.344;11.120;2023-03-14T15:33:57;95999.00;;;9.20
18219;BMP180;9234;49.344;11.120;2023-03-14T15:36:28;95986.00;;;9.20
18219;BMP180;9234;49.344;11.120;2023-03-14T15:38:58;95985.00;;;9.20
18219;BMP180;9234;49.344;11.120;2023-03-14T15:41:28;95989.00;;;9.20
18219;BMP180;9234;49.344;11.120;2023-03-14T15:43:56;95972.00;;;9.20
18219;BMP180;9234;49.344;11.120;2023-03-14T15:46:25;96003.00;;;9.30
18219;BMP180;9234;49.344;11.120;2023-03-14T15:48:56;95987.00;;;9.30
18219;BMP180;9234;49.344;11.120;2023-03-14T15:51:24;95991.00;;;9.30
18219;BMP180;9234;49.344;11.120;2023-03-14T15:53:53;96017.00;;;9.30
18219;BMP180;9234;49.344;11.120;2023-03-14T15:56:21;96012.00;;;9.40